createdAt,value
2022-11-24T00:01:16.375Z,17.80
2022-11-24T00:04:04.963Z,17.55
2022-11-24T00:06:33.692Z,17.95
2022-11-24T00:09:01.104Z,17.67
2022-11-24T00:11:30.703Z,17.23
2022-11-24T00:13:58.895Z,17.30
2022-11-24T00:16:28.986Z,17.17
2022-11-24T00:18:58.251Z,16.30
2022-11-24T00:21:26.781Z,15.60
2022-11-24T00:23:54.156Z,14.95
2022-11-24T00:26:23.868Z,14.90
2022-11-24T00:28:52.515Z,15.38
2022-11-24T00:31:25.264Z,15.65
2022-11-24T00:33:54.871Z,13.95
2022-11-24T00:36:24.475Z,14.50
2022-11-24T00:38:55.582Z,14.20
2022-11-24T00:41:23.803Z,13.70
2022-11-24T00:43:51.240Z,13.35
2022-11-24T00:46:18.487Z,14.05
2022-11-24T00:48:46.338Z,13.05
2022-11-24T00:51:15.400Z,13.80
2022-11-24T00:53:42.769Z,12.77
2022-11-24T00:56:11.235Z,14.82
2022-11-24T00:58:38.872Z,14.27
2022-11-24T01:01:11.919Z,13.35
2022-11-24T01:03:39.818Z,13.55
2022-11-24T01:06:18.712Z,12.32
2022-11-24T01:08:46.346Z,12.68
2022-11-24T01:11:18.482Z,12.35
2022-11-24T01:13:47.390Z,12.35
2022-11-24T01:16:15.503Z,12.60
2022-11-24T01:18:42.510Z,12.73
2022-11-24T01:21:10.433Z,13.18
2022-11-24T01:23:37.909Z,12.18
2022-11-24T01:26:11.683Z,12.90
2022-11-24T01:28:44.873Z,12.00
2022-11-24T01:31:14.753Z,12.82
2022-11-24T01:33:42.294Z,12.63
2022-11-24T01:36:09.257Z,13.05
2022-11-24T01:38:36.195Z,13.25
2022-11-24T01:41:13.202Z,11.88
2022-11-24T01:43:41.231Z,11.85
2022-11-24T01:46:30.542Z,12.68
2022-11-24T01:49:12.379Z,11.18
2022-11-24T01:51:45.781Z,11.50
2022-11-24T01:54:22.351Z,11.70
2022-11-24T01:56:53.827Z,10.48
2022-11-24T01:59:21.738Z,10.50
2022-11-24T02:01:51.389Z,9.38
2022-11-24T02:04:23.882Z,12.23
2022-11-24T02:06:52.728Z,9.70
2022-11-24T02:09:37.524Z,10.15
2022-11-24T02:12:06.197Z,10.25
2022-11-24T02:14:36.358Z,8.98
2022-11-24T02:17:03.569Z,9.95
2022-11-24T02:19:53.711Z,11.02
2022-11-24T02:22:44.896Z,10.25
2022-11-24T02:25:14.633Z,12.10
2022-11-24T02:27:47.074Z,11.43
2022-11-24T02:30:17.938Z,12.85
2022-11-24T02:32:44.914Z,11.10
2022-11-24T02:35:12.316Z,12.02
2022-11-24T02:37:39.274Z,11.18
2022-11-24T02:40:06.913Z,11.90
2022-11-24T02:42:39.955Z,12.32
2022-11-24T02:45:09.259Z,12.23
2022-11-24T02:47:36.262Z,11.43
2022-11-24T02:50:03.740Z,11.90
2022-11-24T02:52:30.929Z,11.82
2022-11-24T02:54:57.903Z,11.82
2022-11-24T02:57:24.837Z,10.45
2022-11-24T02:59:51.792Z,11.30
2022-11-24T03:02:18.763Z,10.88
2022-11-24T03:04:45.669Z,11.10
2022-11-24T03:07:12.639Z,10.70
2022-11-24T03:09:39.608Z,9.98
2022-11-24T03:12:06.922Z,10.85
2022-11-24T03:14:34.213Z,10.52
2022-11-24T03:17:01.429Z,10.45
2022-11-24T03:19:28.365Z,11.38
2022-11-24T03:21:55.310Z,11.40
2022-11-24T03:24:22.300Z,11.18
2022-11-24T03:26:49.198Z,11.60
2022-11-24T03:29:16.955Z,11.60
2022-11-24T03:31:43.993Z,11.88
2022-11-24T03:34:11.052Z,11.25
2022-11-24T03:36:38.175Z,12.48
2022-11-24T03:39:05.388Z,10.63
2022-11-24T03:41:32.341Z,11.80
2022-11-24T03:43:59.292Z,11.80
2022-11-24T03:46:26.346Z,12.25
2022-11-24T03:48:53.316Z,11.23
2022-11-24T03:51:20.317Z,11.43
2022-11-24T03:53:47.245Z,12.07
2022-11-24T03:56:14.578Z,11.13
2022-11-24T03:58:41.491Z,11.65
2022-11-24T04:01:09.122Z,11.70
2022-11-24T04:03:36.119Z,10.68
2022-11-24T04:06:03.056Z,10.30
2022-11-24T04:08:30.028Z,11.15
2022-11-24T04:10:58.164Z,10.98
2022-11-24T04:13:26.579Z,11.80
2022-11-24T04:15:54.086Z,10.55
2022-11-24T04:18:21.640Z,10.13
2022-11-24T04:20:52.524Z,9.48
2022-11-24T04:23:20.084Z,9.25
2022-11-24T04:25:47.175Z,10.10
2022-11-24T04:28:14.380Z,10.13
2022-11-24T04:30:44.820Z,9.98
2022-11-24T04:33:12.881Z,8.65
2022-11-24T04:35:40.193Z,9.00
2022-11-24T04:38:07.208Z,9.38
2022-11-24T04:40:34.296Z,9.13
2022-11-24T04:43:01.323Z,8.48
2022-11-24T04:45:28.341Z,9.50
2022-11-24T04:47:55.376Z,8.35
2022-11-24T04:50:22.406Z,9.50
2022-11-24T04:52:49.500Z,9.25
2022-11-24T04:55:16.572Z,8.35
2022-11-24T04:57:43.641Z,8.90
2022-11-24T05:00:11.215Z,8.45
2022-11-24T05:02:38.497Z,7.70
2022-11-24T05:05:07.130Z,7.32
2022-11-24T05:07:34.973Z,7.00
2022-11-24T05:10:20.472Z,7.22
2022-11-24T05:12:55.676Z,6.30
2022-11-24T05:15:23.457Z,6.68
2022-11-24T05:17:50.603Z,6.35
2022-11-24T05:20:18.255Z,6.53
2022-11-24T05:22:45.600Z,6.55
2022-11-24T05:25:14.295Z,6.15
2022-11-24T05:27:41.662Z,5.95
2022-11-24T05:30:09.465Z,4.75
2022-11-24T05:32:36.566Z,5.32
2022-11-24T05:35:04.530Z,5.38
2022-11-24T05:37:31.961Z,5.47
2022-11-24T05:39:58.850Z,5.40
2022-11-24T05:42:46.146Z,4.75
2022-11-24T05:45:17.579Z,4.70
2022-11-24T05:47:44.724Z,4.07
2022-11-24T05:50:13.737Z,3.65
2022-11-24T05:52:41.228Z,3.38
2022-11-24T05:55:09.650Z,3.45
2022-11-24T05:57:36.640Z,3.50
2022-11-24T06:00:05.838Z,4.25
2022-11-24T06:05:07.198Z,3.70
2022-11-24T06:07:34.219Z,4.18
2022-11-24T06:10:01.288Z,4.20
2022-11-24T06:12:28.405Z,4.03
2022-11-24T06:14:55.348Z,3.33
2022-11-24T06:17:22.635Z,3.67
2022-11-24T06:19:51.671Z,3.70
2022-11-24T06:22:19.364Z,3.47
2022-11-24T06:24:46.755Z,3.53
2022-11-24T06:27:14.255Z,3.60
2022-11-24T06:29:41.329Z,3.67
2022-11-24T06:32:08.331Z,3.75
2022-11-24T06:34:36.103Z,3.22
2022-11-24T06:37:03.437Z,3.90
2022-11-24T06:39:30.443Z,4.43
2022-11-24T06:41:57.566Z,3.95
2022-11-24T06:44:24.577Z,3.90
2022-11-24T06:46:51.601Z,3.72
2022-11-24T06:49:19.047Z,4.40
2022-11-24T06:51:46.035Z,3.30
2022-11-24T06:54:18.272Z,3.45
2022-11-24T06:56:45.408Z,4.20
2022-11-24T06:59:18.606Z,3.45
2022-11-24T07:01:47.045Z,4.20
2022-11-24T07:04:15.108Z,3.20
2022-11-24T07:06:43.055Z,3.67
2022-11-24T07:09:11.947Z,5.63
2022-11-24T07:11:39.269Z,3.90
2022-11-24T07:14:07.068Z,3.65
2022-11-24T07:16:34.522Z,3.17
2022-11-24T07:19:02.083Z,4.10
2022-11-24T07:21:30.664Z,4.22
2022-11-24T07:23:58.092Z,4.05
2022-11-24T07:26:25.948Z,5.82
2022-11-24T07:28:53.437Z,5.15
2022-11-24T07:31:25.056Z,5.40
2022-11-24T07:33:54.300Z,6.28
2022-11-24T07:36:22.597Z,6.28
2022-11-24T07:38:50.405Z,6.65
2022-11-24T07:41:19.666Z,6.00
2022-11-24T07:43:47.760Z,6.20
2022-11-24T07:46:17.434Z,7.20
2022-11-24T07:48:44.851Z,6.53
2022-11-24T07:51:12.178Z,6.70
2022-11-24T07:53:39.613Z,6.65
2022-11-24T07:56:07.104Z,7.65
2022-11-24T07:58:36.504Z,7.95
2022-11-24T08:01:15.362Z,7.68
2022-11-24T08:03:43.497Z,7.28
2022-11-24T08:06:30.517Z,6.25
2022-11-24T08:08:59.861Z,6.82
2022-11-24T08:11:27.822Z,6.63
2022-11-24T08:13:54.813Z,6.90
2022-11-24T08:16:21.988Z,7.35
2022-11-24T08:18:51.306Z,6.45
2022-11-24T08:21:18.965Z,7.05
2022-11-24T08:23:46.365Z,7.70
2022-11-24T08:26:17.558Z,6.68
2022-11-24T08:28:45.893Z,6.95
2022-11-24T08:31:20.822Z,10.77
2022-11-24T08:33:47.848Z,7.73
2022-11-24T08:36:17.368Z,7.80
2022-11-24T08:38:45.302Z,6.60
2022-11-24T08:41:15.531Z,6.82
2022-11-24T08:43:42.781Z,7.05
2022-11-24T08:46:13.246Z,6.93
2022-11-24T08:48:40.434Z,7.72
2022-11-24T08:51:11.053Z,9.18
2022-11-24T08:53:39.256Z,6.22
2022-11-24T08:56:08.922Z,7.22
2022-11-24T08:58:36.820Z,7.05
2022-11-24T09:01:10.229Z,7.55
2022-11-24T09:03:46.331Z,6.85
2022-11-24T09:06:18.532Z,6.95
2022-11-24T09:08:45.536Z,6.68
2022-11-24T09:11:14.551Z,6.57
2022-11-24T09:13:42.191Z,7.70
2022-11-24T09:16:14.907Z,7.47
2022-11-24T09:18:42.521Z,6.93
2022-11-24T09:21:10.419Z,7.22
2022-11-24T09:23:38.247Z,7.80
2022-11-24T09:26:07.765Z,7.25
2022-11-24T09:28:35.316Z,7.20
2022-11-24T09:31:04.350Z,7.22
2022-11-24T09:33:32.761Z,7.72
2022-11-24T09:36:00.262Z,6.95
2022-11-24T09:38:27.895Z,6.90
2022-11-24T09:40:55.971Z,7.53
2022-11-24T09:43:49.213Z,6.43
2022-11-24T09:46:27.480Z,6.13
2022-11-24T09:48:57.797Z,6.38
2022-11-24T09:51:31.201Z,7.15
2022-11-24T09:54:16.023Z,7.43
2022-11-24T09:56:43.236Z,7.88
2022-11-24T09:59:21.944Z,6.60
2022-11-24T10:01:51.001Z,6.93
2022-11-24T10:04:22.955Z,6.93
2022-11-24T10:07:00.452Z,6.57
2022-11-24T10:09:43.437Z,6.20
2022-11-24T10:12:19.552Z,6.68
2022-11-24T10:15:31.314Z,6.45
2022-11-24T10:18:09.346Z,6.90
2022-11-24T10:20:52.628Z,6.18
2022-11-24T10:23:41.442Z,6.22
2022-11-24T10:26:18.609Z,6.20
2022-11-24T10:28:56.254Z,5.32
2022-11-24T10:31:35.754Z,5.35
2022-11-24T10:34:27.251Z,5.80
2022-11-24T10:37:13.238Z,6.20
2022-11-24T10:39:40.300Z,6.65
2022-11-24T10:42:29.445Z,5.90
2022-11-24T10:45:15.049Z,5.47
2022-11-24T10:47:43.540Z,5.70
2022-11-24T10:50:27.971Z,5.10
2022-11-24T10:53:09.991Z,6.80
2022-11-24T10:56:05.111Z,6.50
2022-11-24T10:58:38.575Z,5.68
2022-11-24T11:01:15.164Z,5.47
2022-11-24T11:04:01.671Z,6.70
2022-11-24T11:06:31.005Z,5.70
2022-11-24T11:09:07.356Z,6.43
2022-11-24T11:11:36.002Z,6.07
2022-11-24T11:14:05.258Z,7.05
2022-11-24T11:16:45.955Z,5.90
2022-11-24T11:19:48.512Z,6.15
2022-11-24T11:22:30.778Z,6.20
2022-11-24T11:25:10.175Z,5.85
2022-11-24T11:27:38.856Z,6.35
2022-11-24T11:36:16.951Z,5.78
2022-11-24T11:38:45.044Z,6.28
2022-11-24T11:41:20.599Z,6.38
2022-11-24T11:43:52.302Z,6.10
2022-11-24T11:46:19.868Z,6.25
2022-11-24T11:48:47.838Z,6.68
2022-11-24T11:51:41.879Z,6.05
2022-11-24T11:54:57.274Z,6.40
2022-11-24T11:57:36.301Z,5.93
2022-11-24T12:00:31.665Z,6.85
2022-11-24T12:03:30.929Z,6.53
2022-11-24T12:06:25.209Z,6.25
2022-11-24T12:09:30.042Z,6.47
2022-11-24T12:12:00.084Z,6.43
2022-11-24T12:14:32.998Z,6.20
2022-11-24T12:17:32.026Z,5.38
2022-11-24T12:20:15.730Z,6.40
2022-11-24T12:23:02.944Z,5.68
2022-11-24T12:25:55.012Z,5.35
2022-11-24T12:28:30.898Z,5.80
2022-11-24T12:31:19.720Z,5.25
2022-11-24T12:34:05.040Z,5.53
2022-11-24T12:36:36.060Z,5.45
2022-11-24T12:39:33.848Z,5.35
2022-11-24T12:42:30.455Z,4.75
2022-11-24T12:45:17.962Z,5.70
2022-11-24T12:47:50.946Z,5.18
2022-11-24T12:50:20.201Z,4.82
2022-11-24T12:53:00.529Z,5.97
2022-11-24T12:55:29.765Z,4.85
2022-11-24T12:58:12.033Z,5.15
2022-11-24T13:00:45.142Z,5.80
2022-11-24T13:03:18.795Z,5.70
2022-11-24T13:06:02.998Z,5.20
2022-11-24T13:08:31.288Z,5.18
2022-11-24T13:11:21.148Z,5.25
2022-11-24T13:14:26.725Z,4.40
2022-11-24T13:19:49.849Z,4.45
2022-11-24T13:22:26.333Z,5.30
2022-11-24T13:25:19.151Z,4.28
2022-11-24T13:27:48.799Z,5.22
2022-11-24T13:30:36.056Z,5.60
2022-11-24T13:33:30.219Z,5.35
2022-11-24T13:36:04.069Z,5.30
2022-11-24T13:38:46.395Z,5.30
2022-11-24T13:41:32.217Z,4.68
2022-11-24T13:44:16.944Z,4.93
2022-11-24T13:47:38.885Z,3.78
2022-11-24T13:50:18.872Z,4.43
2022-11-24T13:53:00.242Z,4.22
2022-11-24T13:56:21.748Z,5.88
2022-11-24T13:59:16.114Z,4.30
2022-11-24T14:01:44.748Z,4.55
2022-11-24T14:04:33.996Z,5.15
2022-11-24T14:07:09.080Z,4.55
2022-11-24T14:09:47.636Z,5.15
2022-11-24T14:12:20.603Z,4.57
2022-11-24T14:15:12.758Z,5.63
2022-11-24T14:17:39.810Z,4.95
2022-11-24T14:20:22.044Z,4.90
2022-11-24T14:22:49.365Z,5.18
2022-11-24T14:25:20.476Z,4.60
2022-11-24T14:27:47.537Z,5.40
2022-11-24T14:30:14.527Z,5.03
2022-11-24T14:32:52.754Z,5.63
2022-11-24T14:35:28.947Z,5.00
2022-11-24T14:37:56.334Z,5.32
2022-11-24T14:40:41.924Z,5.10
2022-11-24T14:43:22.569Z,5.40
2022-11-24T14:46:04.788Z,4.72
2022-11-24T14:48:36.897Z,5.18
2022-11-24T14:51:15.169Z,5.10
2022-11-24T14:53:45.306Z,4.88
2022-11-24T14:56:28.987Z,4.90
2022-11-24T14:58:57.432Z,4.90
2022-11-24T15:01:27.537Z,5.43
2022-11-24T15:04:32.482Z,5.60
2022-11-24T15:07:16.077Z,5.28
2022-11-24T15:09:54.001Z,5.93
2022-11-24T15:12:34.995Z,4.70
2022-11-24T15:15:13.269Z,5.57
2022-11-24T15:18:00.357Z,4.80
2022-11-24T15:20:37.360Z,4.63
2022-11-24T15:23:19.167Z,5.30
2022-11-24T15:25:46.277Z,5.40
2022-11-24T15:28:13.335Z,4.95
2022-11-24T15:30:40.356Z,5.00
2022-11-24T15:33:16.385Z,6.22
2022-11-24T15:35:44.062Z,5.22
2022-11-24T15:38:11.452Z,4.60
2022-11-24T15:40:39.443Z,4.75
2022-11-24T15:43:36.609Z,5.43
2022-11-24T15:46:04.605Z,4.60
2022-11-24T15:48:31.688Z,4.80
2022-11-24T15:51:01.544Z,4.85
2022-11-24T15:53:34.944Z,4.47
2022-11-24T15:56:03.338Z,5.50
2022-11-24T15:58:30.509Z,4.93
2022-11-24T16:00:57.648Z,5.15
2022-11-24T16:03:46.402Z,4.47
2022-11-24T16:06:19.080Z,6.18
2022-11-24T16:08:50.907Z,5.90
2022-11-24T16:11:17.823Z,5.13
2022-11-24T16:13:50.337Z,5.40
2022-11-24T16:16:20.155Z,4.97
2022-11-24T16:18:47.330Z,5.97
2022-11-24T16:21:14.503Z,6.25
2022-11-24T16:23:41.654Z,6.43
2022-11-24T16:26:09.986Z,6.43
2022-11-24T16:28:37.032Z,6.45
2022-11-24T16:31:04.212Z,6.57
2022-11-24T16:33:31.516Z,6.57
2022-11-24T16:35:58.790Z,6.65
2022-11-24T16:38:25.841Z,6.35
2022-11-24T16:40:54.603Z,6.35
2022-11-24T16:43:21.625Z,6.38
2022-11-24T16:46:00.784Z,6.68
2022-11-24T16:48:27.832Z,8.13
2022-11-24T16:50:54.801Z,8.25
2022-11-24T16:53:21.708Z,8.70
2022-11-24T16:55:57.567Z,9.00
2022-11-24T17:00:51.567Z,8.60
2022-11-24T17:03:18.880Z,9.13
2022-11-24T17:05:57.616Z,9.27
2022-11-24T17:08:24.666Z,10.43
2022-11-24T17:10:52.165Z,9.10
2022-11-24T17:13:19.117Z,10.18
2022-11-24T17:15:51.003Z,11.02
2022-11-24T17:18:25.446Z,11.73
2022-11-24T17:20:52.865Z,11.85
2022-11-24T17:23:19.899Z,10.70
2022-11-24T17:25:48.334Z,11.30
2022-11-24T17:28:15.375Z,11.60
2022-11-24T17:30:42.637Z,10.57
2022-11-24T17:33:09.652Z,10.90
2022-11-24T17:35:37.037Z,10.70
2022-11-24T17:38:04.411Z,12.68
2022-11-24T17:40:31.435Z,15.50
2022-11-24T17:42:59.911Z,19.92
2022-11-24T17:45:28.285Z,14.27
2022-11-24T17:47:56.272Z,15.50
2022-11-24T17:50:25.932Z,14.65
2022-11-24T17:52:54.270Z,12.90
2022-11-24T17:55:21.756Z,14.50
2022-11-24T17:57:48.726Z,13.65
2022-11-24T18:00:16.216Z,13.07
2022-11-24T18:02:43.264Z,12.68
2022-11-24T18:05:10.249Z,12.80
2022-11-24T18:07:37.239Z,12.55
2022-11-24T18:10:04.813Z,13.20
2022-11-24T18:12:33.045Z,12.93
2022-11-24T18:15:00.134Z,12.68
2022-11-24T18:17:29.045Z,12.23
2022-11-24T18:19:56.131Z,12.80
2022-11-24T18:22:43.059Z,12.35
2022-11-24T18:25:10.247Z,13.50
2022-11-24T18:27:37.225Z,11.27
2022-11-24T18:30:05.647Z,10.98
2022-11-24T18:32:32.980Z,12.25
2022-11-24T18:35:00.517Z,11.43
2022-11-24T18:37:32.411Z,12.50
2022-11-24T18:40:00.139Z,13.07
2022-11-24T18:42:28.815Z,12.20
2022-11-24T18:44:57.088Z,11.40
2022-11-24T18:47:24.325Z,13.60
2022-11-24T18:49:51.339Z,13.48
2022-11-24T18:52:18.412Z,13.13
2022-11-24T18:54:45.426Z,13.65
2022-11-24T18:57:12.360Z,15.13
2022-11-24T18:59:39.249Z,15.15
2022-11-24T19:02:06.400Z,14.40
2022-11-24T19:04:33.737Z,13.55
2022-11-24T19:07:00.878Z,13.43
2022-11-24T19:09:27.972Z,12.70
2022-11-24T19:11:55.103Z,13.27
2022-11-24T19:14:22.187Z,13.30
2022-11-24T19:16:49.253Z,13.20
2022-11-24T19:19:17.206Z,13.85
2022-11-24T19:21:44.690Z,13.35
2022-11-24T19:24:13.248Z,12.80
2022-11-24T19:26:40.675Z,14.50
2022-11-24T19:29:08.461Z,13.00
2022-11-24T19:31:35.618Z,14.00
2022-11-24T19:34:03.569Z,16.42
2022-11-24T19:36:31.188Z,14.60
2022-11-24T19:38:59.546Z,14.63
2022-11-24T19:41:29.553Z,13.73
2022-11-24T19:43:57.964Z,15.02
2022-11-24T19:46:27.381Z,14.23
2022-11-24T19:48:57.056Z,16.30
2022-11-24T19:51:32.474Z,14.98
2022-11-24T19:54:00.239Z,14.20
2022-11-24T19:56:29.170Z,14.45
2022-11-24T19:58:56.421Z,15.00
2022-11-24T20:01:25.441Z,14.93
2022-11-24T20:04:01.262Z,16.33
2022-11-24T20:08:58.736Z,14.55
2022-11-24T20:11:26.340Z,15.77
2022-11-24T20:13:53.560Z,14.88
2022-11-24T20:16:29.759Z,14.35
2022-11-24T20:19:08.434Z,14.90
2022-11-24T20:21:37.628Z,14.15
2022-11-24T20:24:13.682Z,17.10
2022-11-24T20:26:44.130Z,14.45
2022-11-24T20:29:13.014Z,14.48
2022-11-24T20:31:43.350Z,14.20
2022-11-24T20:34:11.816Z,15.48
2022-11-24T20:36:42.188Z,13.88
2022-11-24T20:39:22.441Z,14.02
2022-11-24T20:41:49.545Z,15.65
2022-11-24T20:44:18.448Z,16.27
2022-11-24T20:46:46.623Z,15.38
2022-11-24T20:49:16.494Z,16.13
2022-11-24T20:51:44.306Z,15.10
2022-11-24T20:54:13.081Z,15.90
2022-11-24T20:56:42.487Z,16.10
2022-11-24T20:59:13.025Z,17.80
2022-11-24T21:01:43.044Z,17.98
2022-11-24T21:04:13.898Z,16.92
2022-11-24T21:06:41.874Z,17.65
2022-11-24T21:09:09.893Z,18.80
2022-11-24T21:11:38.535Z,17.25
2022-11-24T21:14:07.026Z,16.02
2022-11-24T21:16:37.023Z,16.02
2022-11-24T21:19:11.633Z,15.90
2022-11-24T21:21:40.187Z,17.33
2022-11-24T21:24:14.054Z,18.00
2022-11-24T21:26:42.309Z,17.52
2022-11-24T21:29:11.552Z,16.48
2022-11-24T21:31:39.036Z,15.73
2022-11-24T21:34:07.760Z,15.13
2022-11-24T21:36:40.084Z,30.17
2022-11-24T21:39:07.258Z,34.47
2022-11-24T21:41:34.561Z,15.65
2022-11-24T21:44:01.760Z,15.70
2022-11-24T21:46:39.037Z,16.75
2022-11-24T21:49:08.061Z,15.48
2022-11-24T21:51:35.044Z,14.90
2022-11-24T21:54:02.258Z,16.67
2022-11-24T21:56:29.200Z,15.75
2022-11-24T21:58:57.979Z,16.10
2022-11-24T22:01:28.127Z,15.88
2022-11-24T22:03:55.899Z,16.42
2022-11-24T22:06:23.111Z,16.33
2022-11-24T22:08:50.256Z,16.15
2022-11-24T22:11:22.266Z,16.80
2022-11-24T22:13:49.818Z,15.23
2022-11-24T22:16:19.898Z,16.20
2022-11-24T22:18:47.244Z,16.15
2022-11-24T22:21:19.922Z,16.05
2022-11-24T22:23:51.337Z,16.35
2022-11-24T22:26:20.608Z,14.88
2022-11-24T22:28:49.146Z,15.43
2022-11-24T22:31:21.352Z,14.93
2022-11-24T22:33:49.479Z,15.77
2022-11-24T22:36:17.948Z,15.50
2022-11-24T22:38:44.964Z,14.30
2022-11-24T22:41:17.353Z,12.52
2022-11-24T22:43:45.667Z,14.35
2022-11-24T22:46:23.825Z,15.27
2022-11-24T22:48:54.730Z,14.65
2022-11-24T22:51:25.373Z,14.15
2022-11-24T22:53:57.066Z,14.13
2022-11-24T22:56:24.853Z,13.50
2022-11-24T22:58:51.919Z,13.77
2022-11-24T23:01:21.165Z,12.70
2022-11-24T23:03:53.648Z,13.68
2022-11-24T23:06:23.176Z,12.70
2022-11-24T23:08:51.198Z,12.52
2022-11-24T23:11:21.332Z,12.85
2022-11-24T23:13:53.558Z,14.18
2022-11-24T23:16:20.991Z,12.75
2022-11-24T23:18:53.545Z,14.30
2022-11-24T23:21:23.952Z,13.15
2022-11-24T23:23:51.408Z,13.63
2022-11-24T23:26:22.169Z,13.00
2022-11-24T23:28:49.788Z,13.05
2022-11-24T23:31:19.848Z,14.57
2022-11-24T23:33:47.180Z,12.65
2022-11-24T23:36:16.828Z,13.52
2022-11-24T23:38:44.361Z,13.73
2022-11-24T23:41:14.196Z,13.70
2022-11-24T23:43:41.990Z,14.55
2022-11-24T23:46:29.140Z,13.50
2022-11-24T23:48:56.799Z,13.70
2022-11-24T23:51:26.455Z,13.98
2022-11-24T23:53:54.426Z,13.52
2022-11-24T23:56:24.200Z,13.90
2022-11-24T23:58:51.418Z,13.98
